createdAt,value
2022-09-05T00:00:05.160Z,76.06
2022-09-05T00:01:27.285Z,75.96
2022-09-05T00:02:49.196Z,75.86
2022-09-05T00:04:24.290Z,76.10
2022-09-05T00:05:27.240Z,76.10
2022-09-05T00:06:43.681Z,76.30
2022-09-05T00:08:01.061Z,76.40
2022-09-05T00:09:17.746Z,76.30
2022-09-05T00:10:35.978Z,76.30
2022-09-05T00:11:53.923Z,76.34
2022-09-05T00:13:10.387Z,76.54
2022-09-05T00:14:38.297Z,76.74
2022-09-05T00:15:48.089Z,76.94
2022-09-05T00:17:04.464Z,77.14
2022-09-05T00:21:36.750Z,77.14
2022-09-05T00:23:06.182Z,77.14
2022-09-05T00:24:31.033Z,77.58
2022-09-05T00:24:32.022Z,77.28
2022-09-05T00:24:36.645Z,77.17
2022-09-05T00:26:30.517Z,77.48
2022-09-05T00:27:47.180Z,77.58
2022-09-05T00:29:03.641Z,77.88
2022-09-05T00:31:05.898Z,77.98
2022-09-05T00:31:53.610Z,77.98
2022-09-05T00:33:03.469Z,77.88
2022-09-05T00:34:26.731Z,77.78
2022-09-05T00:35:49.906Z,77.68
2022-09-05T00:37:06.312Z,77.58
2022-09-05T00:38:27.573Z,77.78
2022-09-05T00:39:47.951Z,77.78
2022-09-05T00:41:09.164Z,77.68
2022-09-05T00:42:25.556Z,77.78
2022-09-05T00:43:41.926Z,77.88
2022-09-05T00:44:58.611Z,77.88
2022-09-05T00:46:15.171Z,77.78
2022-09-05T00:47:31.555Z,77.68
2022-09-05T00:48:49.886Z,77.58
2022-09-05T00:50:06.344Z,77.48
2022-09-05T00:51:29.316Z,77.48
2022-09-05T00:52:52.942Z,77.48
2022-09-05T00:54:05.559Z,77.68
2022-09-05T00:55:21.997Z,77.38
2022-09-05T00:56:38.376Z,77.28
2022-09-05T00:57:55.048Z,77.38
2022-09-05T00:59:11.459Z,77.38
2022-09-05T01:00:27.858Z,77.38
2022-09-05T01:01:44.341Z,77.28
2022-09-05T01:03:02.830Z,77.08
2022-09-05T01:04:19.551Z,77.08
2022-09-05T01:05:35.955Z,77.08
2022-09-05T01:06:52.332Z,76.97
2022-09-05T01:08:08.780Z,76.87
2022-09-05T01:09:27.122Z,76.77
2022-09-05T01:10:43.803Z,76.64
2022-09-05T01:12:02.143Z,76.54
2022-09-05T01:13:18.592Z,76.54
2022-09-05T01:14:36.963Z,76.34
2022-09-05T01:15:53.455Z,76.54
2022-09-05T01:17:10.114Z,76.54
2022-09-05T01:18:26.636Z,76.43
2022-09-05T01:19:43.007Z,76.23
2022-09-05T01:20:59.396Z,76.74
2022-09-05T01:22:15.830Z,76.77
2022-09-05T01:23:32.498Z,76.77
2022-09-05T01:24:50.817Z,76.97
2022-09-05T01:26:07.208Z,76.77
2022-09-05T01:27:23.612Z,76.77
2022-09-05T01:29:15.152Z,76.67
2022-09-05T01:30:06.081Z,76.67
2022-09-05T01:31:22.533Z,76.77
2022-09-05T01:32:38.955Z,76.97
2022-09-05T01:33:55.350Z,77.08
2022-09-05T01:35:13.690Z,77.08
2022-09-05T01:36:30.371Z,77.08
2022-09-05T01:37:46.800Z,77.08
2022-09-05T01:39:51.612Z,77.38
2022-09-05T01:40:24.462Z,77.28
2022-09-05T01:41:42.841Z,77.28
2022-09-05T01:42:59.494Z,77.08
2022-09-05T01:44:15.895Z,77.08
2022-09-05T01:45:39.431Z,77.08
2022-09-05T01:46:55.616Z,77.08
2022-09-05T01:48:12.057Z,77.17
2022-09-05T01:49:28.746Z,77.17
2022-09-05T01:50:45.127Z,77.28
2022-09-05T01:52:01.596Z,77.38
2022-09-05T01:53:18.038Z,77.68
2022-09-05T01:54:34.638Z,77.68
2022-09-05T01:56:06.763Z,77.82
2022-09-05T01:57:12.620Z,77.92
2022-09-05T01:58:32.356Z,77.72
2022-09-05T01:59:48.763Z,77.92
2022-09-05T02:01:31.646Z,78.02
2022-09-05T02:02:27.488Z,77.92
2022-09-05T02:03:45.847Z,77.72
2022-09-05T02:05:02.291Z,77.51
2022-09-05T02:06:20.631Z,77.51
2022-09-05T02:07:37.030Z,77.62
2022-09-05T02:08:53.683Z,77.72
2022-09-05T02:10:10.122Z,77.82
2022-09-05T02:11:36.099Z,77.72
2022-09-05T02:13:02.178Z,77.62
2022-09-05T02:14:08.978Z,78.02
2022-09-05T02:15:25.731Z,78.12
2022-09-05T02:16:44.034Z,78.02
2022-09-05T02:18:00.416Z,78.02
2022-09-05T02:19:16.795Z,78.42
2022-09-05T02:20:33.236Z,78.56
2022-09-05T02:21:56.660Z,78.36
2022-09-05T02:23:32.649Z,78.06
2022-09-05T02:24:32.469Z,78.06
2022-09-05T02:26:02.983Z,78.06
2022-09-05T02:27:46.142Z,77.92
2022-09-05T02:28:35.803Z,77.62
2022-09-05T02:29:52.179Z,77.62
2022-09-05T02:31:19.112Z,77.51
2022-09-05T02:32:33.789Z,77.62
2022-09-05T02:34:01.678Z,77.62
2022-09-05T02:35:16.269Z,77.66
2022-09-05T02:36:32.702Z,77.75
2022-09-05T02:43:51.873Z,77.75
2022-09-05T02:45:00.222Z,77.82
2022-09-05T02:45:07.592Z,77.66
2022-09-05T02:45:07.732Z,77.66
2022-09-05T02:45:09.113Z,77.86
2022-09-05T02:45:14.078Z,77.75
2022-09-05T02:46:02.971Z,77.95
2022-09-05T02:47:19.705Z,78.16
2022-09-05T02:48:38.049Z,77.86
2022-09-05T02:53:46.939Z,77.75
2022-09-05T02:56:18.543Z,77.75
2022-09-05T02:57:30.501Z,77.95
2022-09-05T02:57:33.357Z,77.95
2022-09-05T02:57:38.338Z,77.86
2022-09-05T02:57:44.299Z,77.95
2022-09-05T02:58:07.060Z,78.56
2022-09-05T02:59:35.767Z,78.70
2022-09-05T03:00:51.017Z,78.70
2022-09-05T03:02:25.450Z,78.59
2022-09-05T03:03:28.710Z,78.80
2022-09-05T03:04:45.471Z,78.70
2022-09-05T03:06:04.212Z,78.80
2022-09-05T03:07:20.581Z,78.80
2022-09-05T03:08:36.998Z,78.80
2022-09-05T03:09:53.363Z,78.80
2022-09-05T03:11:10.083Z,79.00
2022-09-05T03:12:28.400Z,79.00
2022-09-05T03:13:48.757Z,79.21
2022-09-05T03:15:22.397Z,79.30
2022-09-05T03:16:28.753Z,79.30
2022-09-05T03:17:45.146Z,79.30
2022-09-05T03:19:01.566Z,79.50
2022-09-05T03:20:17.937Z,79.71
2022-09-05T03:21:34.327Z,79.91
2022-09-05T03:22:50.991Z,79.81
2022-09-05T03:24:07.421Z,79.81
2022-09-05T03:25:23.798Z,79.81
2022-09-05T03:26:40.188Z,79.81
2022-09-05T03:27:56.617Z,79.91
2022-09-05T03:29:13.324Z,79.71
2022-09-05T03:30:29.791Z,79.81
2022-09-05T03:31:48.150Z,80.01
2022-09-05T03:33:04.571Z,80.11
2022-09-05T03:34:22.932Z,80.11
2022-09-05T03:35:39.607Z,80.31
2022-09-05T03:36:57.955Z,80.31
2022-09-05T03:38:14.376Z,80.31
2022-09-05T03:39:30.816Z,80.21
2022-09-05T03:40:47.172Z,79.85
2022-09-05T03:42:03.843Z,79.54
2022-09-05T03:43:25.112Z,79.41
2022-09-05T03:44:41.553Z,79.64
2022-09-05T03:45:59.908Z,79.94
2022-09-05T03:47:16.274Z,80.05
2022-09-05T03:48:32.940Z,80.25
2022-09-05T03:52:48.484Z,80.25
2022-09-05T03:57:05.272Z,80.05
2022-09-05T03:57:10.566Z,80.05
2022-09-05T03:57:19.612Z,80.25
2022-09-05T03:57:22.885Z,80.25
2022-09-05T03:57:23.098Z,80.25
2022-09-05T03:58:16.517Z,80.35
2022-09-05T03:59:25.052Z,80.65
2022-09-05T04:00:43.752Z,80.85
2022-09-05T04:08:09.442Z,80.85
2022-09-05T04:08:14.181Z,80.85
2022-09-05T04:08:16.944Z,81.16
2022-09-05T04:08:28.023Z,80.85
2022-09-05T04:08:28.964Z,80.65
2022-09-05T04:08:48.951Z,81.26
2022-09-05T04:10:05.583Z,81.30
2022-09-05T04:11:23.954Z,81.30
2022-09-05T04:12:40.647Z,81.40
2022-09-05T04:13:57.063Z,81.50
2022-09-05T04:15:13.454Z,81.30
2022-09-05T04:16:31.842Z,81.40
2022-09-05T04:17:50.221Z,81.50
2022-09-05T04:19:08.878Z,81.40
2022-09-05T04:20:27.216Z,81.16
2022-09-05T04:21:43.650Z,81.10
2022-09-05T04:23:02.016Z,80.99
2022-09-05T04:24:20.379Z,81.10
2022-09-05T04:25:38.987Z,80.99
2022-09-05T04:26:57.410Z,81.20
2022-09-05T04:28:15.759Z,81.40
2022-09-05T04:29:34.139Z,81.30
2022-09-05T04:30:51.441Z,81.30
2022-09-05T04:32:18.137Z,81.30
2022-09-05T04:33:36.117Z,81.30
2022-09-05T04:34:53.545Z,81.10
2022-09-05T04:36:18.202Z,81.10
2022-09-05T04:37:47.810Z,81.10
2022-09-05T04:38:58.306Z,80.85
2022-09-05T04:40:20.013Z,80.85
2022-09-05T04:41:39.736Z,80.76
2022-09-05T04:42:57.531Z,80.65
2022-09-05T04:44:16.293Z,80.55
2022-09-05T04:45:36.051Z,80.55
2022-09-05T04:46:54.954Z,80.45
2022-09-05T04:48:13.314Z,80.35
2022-09-05T04:49:34.129Z,80.25
2022-09-05T04:50:52.745Z,80.35
2022-09-05T04:52:14.797Z,80.55
2022-09-05T04:53:34.958Z,80.65
2022-09-05T04:54:51.437Z,80.65
2022-09-05T04:56:09.803Z,80.65
2022-09-05T04:57:28.952Z,80.76
2022-09-05T05:00:38.173Z,80.76
2022-09-05T05:06:04.558Z,80.96
2022-09-05T05:06:05.503Z,80.85
2022-09-05T05:06:10.496Z,81.05
2022-09-05T05:06:11.398Z,81.05
2022-09-05T05:06:14.483Z,81.05
2022-09-05T05:07:06.191Z,81.05
2022-09-05T05:08:38.222Z,80.96
2022-09-05T05:09:47.852Z,80.76
2022-09-05T05:14:49.897Z,80.72
2022-09-05T05:18:00.831Z,80.76
2022-09-05T05:18:00.928Z,80.51
2022-09-05T05:18:11.818Z,80.62
2022-09-05T05:18:11.987Z,80.31
2022-09-05T05:18:42.218Z,80.41
2022-09-05T05:19:31.145Z,80.21
2022-09-05T05:20:48.659Z,80.01
2022-09-05T05:22:07.966Z,80.11
2022-09-05T05:23:24.465Z,80.41
2022-09-05T05:24:41.036Z,80.82
2022-09-05T05:25:58.451Z,80.96
2022-09-05T05:27:17.707Z,81.05
2022-09-05T05:28:36.918Z,81.05
2022-09-05T05:29:54.343Z,81.02
2022-09-05T05:31:11.943Z,81.12
2022-09-05T05:32:46.081Z,81.16
2022-09-05T05:33:51.560Z,81.16
2022-09-05T05:35:12.401Z,81.22
2022-09-05T05:36:31.544Z,81.22
2022-09-05T05:37:48.903Z,81.12
2022-09-05T05:39:06.313Z,81.02
2022-09-05T05:40:24.265Z,80.92
2022-09-05T05:43:33.941Z,80.51
2022-09-05T05:44:53.887Z,80.51
2022-09-05T05:46:13.329Z,80.58
2022-09-05T05:47:31.800Z,80.62
2022-09-05T05:48:57.494Z,80.68
2022-09-05T05:50:14.820Z,80.58
2022-09-05T05:51:34.613Z,80.27
2022-09-05T05:52:57.134Z,80.07
2022-09-05T05:54:17.025Z,79.77
2022-09-05T05:55:52.196Z,79.47
2022-09-05T05:56:57.868Z,79.27
2022-09-05T05:58:15.496Z,79.03
2022-09-05T05:59:32.899Z,78.92
2022-09-05T06:00:52.106Z,78.92
2022-09-05T06:02:10.090Z,78.83
2022-09-05T06:03:28.582Z,78.83
2022-09-05T06:04:47.505Z,78.72
2022-09-05T06:06:05.854Z,78.63
2022-09-05T06:07:25.032Z,78.28
2022-09-05T06:13:36.251Z,78.08
2022-09-05T06:14:52.022Z,77.98
2022-09-05T06:14:58.420Z,77.68
2022-09-05T06:15:02.369Z,77.68
2022-09-05T06:15:03.766Z,77.78
2022-09-05T06:15:36.597Z,77.48
2022-09-05T06:16:55.204Z,77.55
2022-09-05T06:18:14.047Z,77.64
2022-09-05T06:19:36.242Z,77.55
2022-09-05T06:22:05.835Z,77.44
2022-09-05T06:22:21.064Z,77.34
2022-09-05T06:23:40.280Z,77.24
2022-09-05T06:25:07.684Z,77.11
2022-09-05T06:26:21.431Z,77.11
2022-09-05T06:27:43.940Z,77.00
2022-09-05T06:29:02.920Z,77.00
2022-09-05T06:30:21.489Z,76.97
2022-09-05T06:31:41.339Z,76.87
2022-09-05T06:33:00.571Z,76.67
2022-09-05T06:34:30.864Z,76.36
2022-09-05T06:35:40.583Z,76.03
2022-09-05T06:36:59.543Z,75.82
2022-09-05T06:38:16.890Z,75.62
2022-09-05T06:39:35.863Z,75.38
2022-09-05T06:40:54.904Z,75.18
2022-09-05T06:42:28.442Z,75.18
2022-09-05T06:43:36.005Z,75.35
2022-09-05T06:44:53.344Z,75.15
2022-09-05T06:46:15.831Z,74.55
2022-09-05T06:47:38.114Z,74.24
2022-09-05T06:49:33.467Z,74.11
2022-09-05T06:50:24.491Z,73.91
2022-09-05T06:51:44.173Z,73.81
2022-09-05T06:53:07.039Z,73.37
2022-09-05T06:54:24.780Z,72.97
2022-09-05T06:55:42.129Z,72.37
2022-09-05T06:56:59.610Z,71.93
2022-09-05T06:58:18.822Z,71.53
2022-09-05T06:59:37.282Z,71.09
2022-09-05T07:00:55.288Z,70.69
2022-09-05T07:02:12.758Z,70.36
2022-09-05T07:03:32.350Z,70.06
2022-09-05T07:05:24.095Z,69.62
2022-09-05T07:06:13.598Z,69.09
2022-09-05T07:07:35.818Z,68.49
2022-09-05T07:08:53.166Z,67.86
2022-09-05T07:10:35.005Z,67.52
2022-09-05T07:11:34.635Z,66.72
2022-09-05T07:12:52.130Z,66.09
2022-09-05T07:14:10.965Z,65.56
2022-09-05T07:15:29.971Z,64.63
2022-09-05T07:16:48.830Z,63.80
2022-09-05T07:18:10.504Z,63.07
2022-09-05T07:19:28.364Z,62.37
2022-09-05T07:21:15.917Z,62.04
2022-09-05T07:22:25.801Z,61.52
2022-09-05T07:24:05.692Z,60.89
2022-09-05T07:24:56.962Z,60.26
2022-09-05T07:26:39.570Z,59.86
2022-09-05T07:27:49.838Z,59.44
2022-09-05T07:29:02.863Z,59.11
2022-09-05T07:30:22.459Z,58.71
2022-09-05T07:31:41.451Z,58.18
2022-09-05T07:33:00.311Z,57.56
2022-09-05T07:34:21.233Z,56.94
2022-09-05T07:35:41.622Z,56.41
2022-09-05T07:37:13.991Z,55.52
2022-09-05T07:38:26.699Z,55.00
2022-09-05T07:39:45.758Z,54.97
2022-09-05T07:41:03.398Z,53.96
2022-09-05T07:42:22.332Z,53.73
2022-09-05T07:43:41.659Z,52.73
2022-09-05T07:45:00.687Z,52.02
2022-09-05T07:46:18.046Z,51.00
2022-09-05T07:47:37.140Z,50.48
2022-09-05T07:48:55.952Z,49.37
2022-09-05T07:51:54.814Z,48.77
2022-09-05T07:56:46.030Z,47.86
2022-09-05T07:56:49.543Z,47.44
2022-09-05T07:57:03.980Z,46.51
2022-09-05T07:57:04.796Z,47.22
2022-09-05T07:57:25.361Z,45.52
2022-09-05T07:58:32.690Z,44.43
2022-09-05T07:59:50.047Z,44.54
2022-09-05T08:01:07.732Z,44.12
2022-09-05T08:02:27.087Z,44.02
2022-09-05T08:03:45.958Z,43.92
2022-09-05T08:05:05.143Z,43.90
2022-09-05T08:07:47.960Z,43.80
2022-09-05T08:07:48.903Z,43.90
2022-09-05T08:09:21.484Z,43.19
2022-09-05T08:10:54.987Z,43.09
2022-09-05T08:11:58.976Z,42.77
2022-09-05T08:13:24.307Z,42.65
2022-09-05T08:14:45.280Z,41.96
2022-09-05T08:16:10.406Z,42.26
2022-09-05T08:17:30.344Z,41.85
2022-09-05T08:18:48.216Z,41.53
2022-09-05T08:20:08.680Z,41.14
2022-09-05T08:21:28.046Z,41.11
2022-09-05T08:22:48.043Z,40.21
2022-09-05T08:24:13.135Z,40.00
2022-09-05T08:25:30.149Z,39.80
2022-09-05T08:26:52.348Z,39.39
2022-09-05T08:28:10.491Z,39.37
2022-09-05T08:29:28.905Z,38.56
2022-09-05T08:30:46.763Z,37.48
2022-09-05T08:32:04.084Z,37.37
2022-09-05T08:33:22.925Z,37.15
2022-09-05T08:34:44.664Z,36.86
2022-09-05T08:36:02.873Z,36.57
2022-09-05T08:37:20.945Z,36.76
2022-09-05T08:38:40.883Z,36.66
2022-09-05T08:40:10.562Z,36.57
2022-09-05T08:41:25.931Z,36.27
2022-09-05T08:43:49.587Z,36.27
2022-09-05T08:46:35.532Z,36.76
2022-09-05T08:46:39.204Z,36.57
2022-09-05T08:46:56.572Z,36.57
2022-09-05T08:48:14.619Z,36.57
2022-09-05T08:49:37.857Z,36.35
2022-09-05T08:50:54.563Z,35.75
2022-09-05T08:52:13.447Z,35.53
2022-09-05T08:53:46.631Z,35.04
2022-09-05T08:55:02.816Z,35.16
2022-09-05T08:56:20.856Z,35.66
2022-09-05T08:57:40.205Z,35.49
2022-09-05T08:59:31.780Z,35.58
2022-09-05T09:00:24.502Z,35.88
2022-09-05T09:01:53.048Z,36.27
2022-09-05T09:03:05.166Z,36.37
2022-09-05T09:04:43.648Z,35.47
2022-09-05T09:06:11.870Z,35.96
2022-09-05T09:07:47.107Z,35.76
2022-09-05T09:08:31.721Z,35.04
2022-09-05T09:09:49.091Z,34.84
2022-09-05T09:11:06.503Z,34.74
2022-09-05T09:12:25.972Z,34.62
2022-09-05T09:13:44.832Z,33.62
2022-09-05T09:15:03.681Z,33.14
2022-09-05T09:16:22.775Z,33.12
2022-09-05T09:17:40.115Z,32.63
2022-09-05T09:18:57.986Z,32.32
2022-09-05T09:20:16.975Z,32.32
2022-09-05T09:21:35.406Z,32.62
2022-09-05T09:22:54.241Z,32.92
2022-09-05T09:24:12.579Z,33.33
2022-09-05T09:25:33.871Z,34.03
2022-09-05T09:26:52.451Z,34.14
2022-09-05T09:28:48.916Z,34.45
2022-09-05T09:29:33.960Z,34.57
2022-09-05T09:30:51.367Z,34.88
2022-09-05T09:32:12.242Z,34.67
2022-09-05T09:33:31.611Z,34.18
2022-09-05T09:34:50.443Z,33.65
2022-09-05T09:36:12.164Z,32.87
2022-09-05T09:37:49.560Z,32.46
2022-09-05T09:38:51.725Z,32.29
2022-09-05T09:40:09.174Z,32.68
2022-09-05T09:41:27.109Z,33.28
2022-09-05T09:42:45.968Z,34.10
2022-09-05T09:44:03.318Z,34.31
2022-09-05T09:45:28.196Z,34.81
2022-09-05T09:46:46.274Z,35.50
2022-09-05T09:48:04.150Z,35.52
2022-09-05T09:49:23.675Z,36.01
2022-09-05T09:50:45.055Z,35.42
2022-09-05T09:52:03.301Z,34.81
2022-09-05T09:53:21.245Z,34.00
2022-09-05T09:54:51.045Z,33.69
2022-09-05T09:56:09.738Z,33.38
2022-09-05T09:57:35.040Z,33.38
2022-09-05T09:58:58.850Z,32.99
2022-09-05T10:00:20.590Z,33.38
2022-09-05T10:01:39.077Z,33.79
2022-09-05T10:06:54.113Z,33.70
2022-09-05T10:10:36.002Z,34.90
2022-09-05T10:10:38.648Z,34.30
2022-09-05T10:10:49.915Z,35.70
2022-09-05T10:10:50.232Z,35.42
2022-09-05T10:10:57.451Z,35.03
2022-09-05T10:12:35.656Z,35.33
2022-09-05T10:13:54.073Z,35.33
2022-09-05T10:15:18.617Z,35.34
2022-09-05T10:16:36.608Z,36.22
2022-09-05T10:17:53.962Z,36.03
2022-09-05T10:19:13.598Z,36.22
2022-09-05T10:20:32.442Z,36.54
2022-09-05T10:22:34.454Z,36.83
2022-09-05T10:23:12.938Z,36.83
2022-09-05T10:24:30.309Z,37.82
2022-09-05T10:25:49.179Z,38.13
2022-09-05T10:27:07.518Z,37.34
2022-09-05T10:28:26.341Z,37.93
2022-09-05T10:29:46.310Z,37.44
2022-09-05T10:34:39.441Z,36.63
2022-09-05T10:35:06.117Z,36.40
2022-09-05T10:35:09.385Z,35.52
2022-09-05T10:35:22.474Z,35.72
2022-09-05T10:36:37.223Z,34.93
2022-09-05T10:37:55.591Z,34.42
2022-09-05T10:39:13.510Z,34.01
2022-09-05T10:40:37.304Z,33.20
2022-09-05T10:41:55.388Z,32.48
2022-09-05T10:43:12.729Z,31.98
2022-09-05T10:44:30.108Z,31.38
2022-09-05T10:45:47.489Z,30.09
2022-09-05T10:47:04.931Z,29.79
2022-09-05T10:48:24.531Z,29.79
2022-09-05T10:49:42.003Z,29.47
2022-09-05T10:51:00.920Z,29.47
2022-09-05T10:52:19.728Z,29.38
2022-09-05T10:53:39.935Z,29.27
2022-09-05T10:55:13.640Z,28.96
2022-09-05T10:56:20.765Z,29.43
2022-09-05T10:57:40.142Z,28.67
2022-09-05T11:01:48.542Z,29.57
2022-09-05T11:02:20.100Z,29.96
2022-09-05T11:02:20.819Z,30.08
2022-09-05T11:03:22.346Z,29.99
2022-09-05T11:04:31.601Z,29.39
2022-09-05T11:05:53.771Z,26.09
2022-09-05T11:07:12.650Z,25.37
2022-09-05T11:08:30.041Z,26.35
2022-09-05T11:09:49.432Z,27.05
2022-09-05T11:11:11.876Z,27.44
2022-09-05T11:12:34.066Z,27.34
2022-09-05T11:13:51.508Z,27.03
2022-09-05T11:15:09.978Z,27.33
2022-09-05T11:16:27.319Z,26.24
2022-09-05T11:17:44.938Z,25.64
2022-09-05T11:19:03.326Z,25.93
2022-09-05T11:20:26.116Z,25.93
2022-09-05T11:21:44.392Z,25.73
2022-09-05T11:23:04.693Z,25.92
2022-09-05T11:24:27.274Z,25.81
2022-09-05T11:25:44.899Z,25.91
2022-09-05T11:27:24.315Z,25.82
2022-09-05T11:28:24.942Z,25.62
2022-09-05T11:29:44.192Z,25.51
2022-09-05T11:31:03.113Z,25.51
2022-09-05T11:39:46.713Z,25.70
2022-09-05T11:39:50.385Z,25.10
2022-09-05T11:39:54.592Z,25.79
2022-09-05T11:39:56.071Z,25.93
2022-09-05T11:40:08.462Z,25.62
2022-09-05T11:40:10.857Z,25.01
2022-09-05T11:40:52.685Z,26.24
2022-09-05T11:42:03.636Z,27.03
2022-09-05T11:43:21.017Z,27.72
2022-09-05T11:44:40.349Z,27.15
2022-09-05T11:45:59.289Z,27.55
2022-09-05T11:47:29.857Z,27.65
2022-09-05T11:48:41.842Z,27.66
2022-09-05T11:50:02.929Z,27.97
2022-09-05T11:51:34.036Z,28.86
2022-09-05T11:52:49.493Z,28.38
2022-09-05T11:54:08.896Z,28.45
2022-09-05T11:55:26.228Z,28.94
2022-09-05T11:56:46.023Z,28.85
2022-09-05T11:58:44.253Z,28.63
2022-09-05T11:59:33.309Z,28.03
2022-09-05T12:00:49.409Z,28.11
2022-09-05T12:02:16.954Z,27.91
2022-09-05T12:03:57.632Z,27.90
2022-09-05T12:05:49.606Z,27.50
2022-09-05T12:06:20.770Z,27.50
2022-09-05T12:07:39.813Z,27.39
2022-09-05T12:09:01.299Z,27.09
2022-09-05T12:10:45.792Z,26.80
2022-09-05T12:11:44.389Z,27.19
2022-09-05T12:13:03.328Z,26.89
2022-09-05T12:14:26.402Z,26.39
2022-09-05T12:16:03.071Z,26.18
2022-09-05T12:17:16.939Z,25.78
2022-09-05T12:18:35.654Z,25.97
2022-09-05T12:19:53.572Z,26.25
2022-09-05T12:21:19.597Z,25.36
2022-09-05T12:22:36.792Z,24.78
2022-09-05T12:24:13.482Z,25.25
2022-09-05T12:25:26.749Z,24.95
2022-09-05T12:27:40.032Z,24.76
2022-09-05T12:29:27.198Z,24.76
2022-09-05T12:29:29.405Z,24.55
2022-09-05T12:31:00.453Z,24.66
2022-09-05T12:33:52.400Z,24.46
2022-09-05T12:36:01.667Z,25.08
2022-09-05T12:36:03.746Z,25.47
2022-09-05T12:40:05.087Z,25.05
2022-09-05T12:40:43.206Z,24.66
2022-09-05T12:40:55.325Z,24.24
2022-09-05T12:41:37.138Z,23.76
2022-09-05T12:42:15.155Z,24.16
2022-09-05T12:44:32.563Z,24.77
2022-09-05T12:44:46.977Z,24.88
2022-09-05T12:46:12.541Z,25.26
2022-09-05T12:47:32.159Z,25.57
2022-09-05T12:48:49.579Z,26.28
2022-09-05T12:50:14.408Z,25.87
2022-09-05T12:51:45.417Z,25.85
2022-09-05T12:52:55.239Z,24.97
2022-09-05T12:54:32.577Z,25.07
2022-09-05T12:55:39.515Z,25.16
2022-09-05T13:00:12.369Z,24.57
2022-09-05T13:03:01.532Z,24.67
2022-09-05T13:03:01.613Z,25.54
2022-09-05T13:03:05.724Z,24.67
2022-09-05T13:03:14.369Z,24.67
2022-09-05T13:04:17.290Z,24.88
2022-09-05T13:05:19.792Z,25.18
2022-09-05T13:06:38.287Z,25.48
2022-09-05T13:07:55.729Z,25.69
2022-09-05T13:09:14.966Z,25.31
2022-09-05T13:14:49.000Z,25.81
2022-09-05T13:14:56.581Z,26.90
2022-09-05T13:14:58.212Z,26.80
2022-09-05T13:15:06.001Z,26.30
2022-09-05T13:16:03.445Z,25.99
2022-09-05T13:17:22.356Z,26.08
2022-09-05T13:18:41.252Z,25.68
2022-09-05T13:19:59.165Z,25.79
2022-09-05T13:21:23.041Z,25.09
2022-09-05T13:22:48.680Z,24.79
2022-09-05T13:24:04.664Z,24.58
2022-09-05T13:25:22.105Z,24.78
2022-09-05T13:26:44.901Z,24.77
2022-09-05T13:28:03.199Z,25.05
2022-09-05T13:29:21.211Z,24.87
2022-09-05T13:37:37.053Z,25.35
2022-09-05T13:37:59.805Z,24.77
2022-09-05T13:37:59.886Z,25.05
2022-09-05T13:38:04.490Z,25.53
2022-09-05T13:38:04.873Z,25.14
2022-09-05T13:38:15.190Z,25.04
2022-09-05T13:39:08.275Z,25.82
2022-09-05T13:40:28.398Z,25.63
2022-09-05T13:41:50.391Z,25.92
2022-09-05T13:43:07.880Z,25.81
2022-09-05T13:44:28.274Z,25.43
2022-09-05T13:45:52.938Z,25.15
2022-09-05T13:47:29.397Z,25.45
2022-09-05T13:50:05.074Z,25.15
2022-09-05T13:51:23.347Z,25.05
2022-09-05T13:52:42.141Z,25.54
2022-09-05T13:54:01.529Z,25.35
2022-09-05T13:55:19.026Z,25.15
2022-09-05T13:56:36.731Z,25.35
2022-09-05T13:57:56.430Z,25.15
2022-09-05T13:59:14.544Z,24.76
2022-09-05T14:00:33.432Z,25.53
2022-09-05T14:02:23.803Z,25.14
2022-09-05T14:05:09.393Z,25.03
2022-09-05T14:06:46.988Z,25.13
2022-09-05T14:07:50.597Z,24.84
2022-09-05T14:10:32.271Z,25.24
2022-09-05T14:11:52.239Z,25.45
2022-09-05T14:13:10.609Z,25.54
2022-09-05T14:15:52.721Z,25.35
2022-09-05T14:18:34.074Z,25.25
2022-09-05T14:19:53.654Z,25.15
2022-09-05T14:21:12.132Z,25.15
2022-09-05T14:22:30.958Z,25.74
2022-09-05T14:23:49.005Z,26.04
2022-09-05T14:25:06.357Z,26.04
2022-09-05T14:26:24.019Z,25.96
2022-09-05T14:27:41.496Z,26.17
2022-09-05T14:28:59.647Z,25.96
2022-09-05T14:32:09.293Z,26.36
2022-09-05T14:37:34.497Z,26.47
2022-09-05T14:37:39.369Z,26.78
2022-09-05T14:37:41.895Z,26.47
2022-09-05T14:37:54.600Z,26.87
2022-09-05T14:38:00.509Z,26.68
2022-09-05T14:38:35.723Z,26.57
2022-09-05T14:39:53.098Z,26.37
2022-09-05T14:41:11.138Z,26.47
2022-09-05T14:42:28.976Z,26.36
2022-09-05T14:43:47.650Z,26.17
2022-09-05T14:45:06.065Z,26.07
2022-09-05T14:46:22.756Z,26.07
2022-09-05T14:47:40.052Z,26.17
2022-09-05T14:48:57.588Z,26.36
2022-09-05T14:50:21.187Z,26.46
2022-09-05T14:51:39.652Z,26.76
2022-09-05T14:55:51.408Z,26.57
2022-09-05T15:02:38.503Z,26.67
2022-09-05T15:02:45.491Z,26.59
2022-09-05T15:02:46.362Z,26.29
2022-09-05T15:02:49.359Z,26.19
2022-09-05T15:03:00.344Z,26.50
2022-09-05T15:05:32.227Z,26.40
2022-09-05T15:06:49.610Z,26.69
2022-09-05T15:08:24.022Z,27.29
2022-09-05T15:12:20.312Z,26.39
2022-09-05T15:12:25.031Z,26.69
2022-09-05T15:12:31.271Z,26.48
2022-09-05T15:13:37.051Z,26.29
2022-09-05T15:14:54.542Z,26.29
2022-09-05T15:16:13.290Z,26.68
2022-09-05T15:17:31.575Z,26.69
2022-09-05T15:18:50.606Z,26.50
2022-09-05T15:20:08.518Z,27.19
2022-09-05T15:21:33.858Z,27.50
2022-09-05T15:22:55.606Z,27.79
2022-09-05T15:24:14.409Z,27.89
2022-09-05T15:25:32.925Z,27.90
2022-09-05T15:26:51.199Z,27.91
2022-09-05T15:28:12.655Z,28.61
2022-09-05T15:29:31.098Z,28.61
2022-09-05T15:30:49.508Z,28.61
2022-09-05T15:32:09.777Z,28.43
2022-09-05T15:33:27.991Z,28.23
2022-09-05T15:34:46.387Z,28.04
2022-09-05T15:36:03.731Z,28.23
2022-09-05T15:37:22.813Z,28.63
2022-09-05T15:38:55.922Z,28.53
2022-09-05T15:40:03.902Z,28.43
2022-09-05T15:41:23.982Z,28.63
2022-09-05T15:42:40.666Z,28.83
2022-09-05T15:43:59.367Z,28.83
2022-09-05T15:45:18.882Z,28.83
2022-09-05T15:46:37.513Z,28.85
2022-09-05T15:47:55.940Z,28.75
2022-09-05T15:49:14.309Z,29.14
2022-09-05T15:50:32.660Z,28.85
2022-09-05T15:51:51.445Z,28.55
2022-09-05T15:53:10.281Z,28.55
2022-09-05T15:54:38.657Z,29.25
2022-09-05T15:55:52.315Z,28.96
2022-09-05T15:57:13.422Z,28.47
2022-09-05T15:58:53.969Z,28.38
2022-09-05T15:59:57.582Z,28.86
2022-09-05T16:01:30.243Z,29.16
2022-09-05T16:02:37.436Z,29.36
2022-09-05T16:10:29.369Z,28.78
2022-09-05T16:10:30.389Z,29.17
2022-09-05T16:10:45.159Z,28.88
2022-09-05T16:10:50.492Z,29.07
2022-09-05T16:10:50.570Z,28.78
2022-09-05T16:11:30.683Z,28.68
2022-09-05T16:12:13.889Z,28.68
2022-09-05T16:13:53.274Z,28.78
2022-09-05T16:15:39.443Z,29.08
2022-09-05T16:21:34.295Z,28.89
2022-09-05T16:23:14.057Z,29.18
2022-09-05T16:23:24.616Z,28.91
2022-09-05T16:23:31.197Z,28.51
2022-09-05T16:23:31.776Z,28.91
2022-09-05T16:23:39.592Z,28.91
2022-09-05T16:24:58.170Z,29.41
2022-09-05T16:26:01.321Z,30.58
2022-09-05T16:27:20.482Z,30.29
2022-09-05T16:28:38.236Z,29.60
2022-09-05T16:29:55.168Z,29.50
2022-09-05T16:31:12.529Z,29.72
2022-09-05T16:32:31.009Z,30.11
2022-09-05T16:33:49.621Z,30.90
2022-09-05T16:35:08.591Z,31.10
2022-09-05T16:36:26.330Z,31.01
2022-09-05T16:37:43.147Z,31.71
2022-09-05T16:38:59.629Z,31.41
2022-09-05T16:40:16.401Z,31.92
2022-09-05T16:41:33.610Z,31.53
2022-09-05T16:42:50.146Z,32.02
2022-09-05T16:44:08.571Z,32.43
2022-09-05T16:45:27.086Z,33.22
2022-09-05T16:46:46.660Z,33.33
2022-09-05T16:48:04.312Z,33.82
2022-09-05T16:49:42.095Z,33.92
2022-09-05T16:50:49.253Z,34.23
2022-09-05T16:52:07.302Z,34.03
2022-09-05T16:53:30.296Z,33.94
2022-09-05T16:54:47.942Z,34.03
2022-09-05T16:56:06.292Z,33.94
2022-09-05T16:57:24.624Z,33.94
2022-09-05T16:58:43.573Z,33.94
2022-09-05T17:00:01.185Z,34.13
2022-09-05T17:01:19.659Z,34.33
2022-09-05T17:02:38.112Z,34.64
2022-09-05T17:03:56.476Z,34.74
2022-09-05T17:05:15.889Z,35.13
2022-09-05T17:06:35.633Z,34.84
2022-09-05T17:07:52.018Z,35.15
2022-09-05T17:09:12.776Z,35.54
2022-09-05T17:10:29.949Z,35.64
2022-09-05T17:12:00.353Z,36.13
2022-09-05T17:13:10.495Z,36.35
2022-09-05T17:14:33.162Z,36.15
2022-09-05T17:15:52.421Z,36.35
2022-09-05T17:17:20.238Z,36.45
2022-09-05T17:18:32.059Z,36.65
2022-09-05T17:20:06.368Z,36.76
2022-09-05T17:21:13.654Z,36.46
2022-09-05T17:26:25.010Z,36.57
2022-09-05T17:29:17.678Z,36.86